Data for 08/25/2013

Time Sea-Level Adjusted Pressure Absolute Pressure Temperature Relative Humidity Dew Point   
(mb) (inHg) (mb) (inHg) (C) (F) (%) (C) (F)
00:05 1020 30.12 849 25.07 15.6 60.1 57 7.3 45.2
00:10 1020 30.12 849 25.07 15.6 60.1 58 7.4 45.4
00:15 1020 30.12 849 25.07 15.6 60 57 7.2 45
00:20 1020 30.12 849 25.07 15.7 60.3 61 8.4 47.1
00:25 1020 30.12 849 25.07 15.6 60 60 7.8 46.1
00:30 1020 30.12 849 25.07 15.2 59.4 62 8 46.4
00:35 1020 30.12 849 25.07 15 58.9 61 7.6 45.8
00:40 1020 30.12 849 25.07 14.9 58.7 63 8 46.3
00:45 1020 30.12 849 25.07 14.7 58.4 64 8 46.5
00:50 1020 30.12 849 25.07 14.5 58 66 8.2 46.8
00:55 1020 30.12 849 25.07 14.2 57.6 68 8.4 47.1
01:00 1020 30.12 849 25.07 14.1 57.3 69 8.5 47.3
01:05 1020 30.12 849 25.07 14 57.2 68 8.4 47
01:10 1020 30.12 849 25.07 13.9 56.9 70 8.5 47.2
01:15 1020 30.12 849 25.07 13.7 56.6 71 8.5 47.3
01:20 1020 30.12 849 25.07 13.2 55.8 72 8.3 47
01:25 1020 30.12 849 25.07 13.2 55.7 72 8.2 46.8
01:30 1020 30.12 849 25.07 13.2 55.7 72 8.2 46.8
01:35 1020 30.12 849 25.07 13.1 55.6 72 8.2 46.7
01:40 1020 30.12 849 25.07 13 55.4 71 8 46.3
01:45 1020 30.12 849 25.07 13.1 55.6 71 7.9 46.3
01:50 1020 30.12 849 25.07 13.2 55.7 72 8.2 46.7
01:55 1020 30.12 849 25.07 12.9 55.2 72 8.1 46.6
02:00 1020 30.12 849 25.07 12.6 54.7 73 8 46.4
02:05 1020 30.12 849 25.07 12.4 54.2 74 7.8 46.1
02:10 1020 30.12 849 25.07 12.1 53.7 76 8.1 46.5
02:15 1020 30.12 849 25.07 11.9 53.3 77 7.9 46.2
02:20 1020 30.12 849 25.07 11.9 53.5 76 7.8 46.1
02:25 1020 30.12 849 25.07 12 53.6 75 7.7 45.9
02:30 1020 30.12 849 25.07 12 53.5 75 7.8 46
02:35 1020 30.12 849 25.07 11.9 53.4 75 7.6 45.8
02:40 1020 30.12 849 25.07 11.9 53.4 75 7.7 45.8
02:45 1020 30.12 849 25.07 12 53.6 74 7.6 45.6
02:50 1020 30.12 849 25.07 12.2 53.9 72 7.3 45.2
02:55 1020 30.12 849 25.07 12.2 53.9 73 7.6 45.7
03:00 1020 30.12 849 25.07 12.1 53.8 74 7.6 45.6
03:05 1020 30.12 849 25.07 12 53.6 72 7.2 45
03:10 1020 30.12 849 25.07 12.1 53.7 75 7.7 45.9
03:15 1020 30.12 849 25.07 12 53.6 72 7.1 44.7
03:20 1020 30.12 849 25.07 12.5 54.5 69 7 44.6
03:25 1020 30.12 849 25.07 12.7 54.9 69 7.2 45
03:30 1020 30.12 849 25.07 12.7 54.8 69 7.2 45
03:35 1020 30.12 849 25.07 12.5 54.5 70 7.2 45
03:40 1020 30.12 849 25.07 12.7 54.8 69 7.2 44.9
03:45 1020 30.12 849 25.07 12.8 55.1 69 7.4 45.3
03:50 1020 30.12 849 25.07 12.5 54.4 74 7.9 46.2
03:55 1020 30.12 849 25.07 11.6 52.8 78 7.8 46.1
04:00 1020 30.12 849 25.07 11.1 52 79 7.7 45.8
04:05 1020 30.12 849 25.07 11.1 51.9 78 7.5 45.5
04:10 1020 30.12 849 25.07 11.5 52.6 74 6.9 44.5
04:15 1020 30.12 849 25.07 12 53.6 73 7.3 45.2
04:20 1020 30.12 849 25.07 12.1 53.8 70 6.8 44.2
04:25 1020 30.12 849 25.07 12.5 54.5 68 6.8 44.2
04:30 1020 30.12 849 25.07 12.7 54.8 69 7.2 45
04:35 1020 30.12 849 25.07 12.6 54.7 67 6.7 44.1
04:40 1020 30.12 849 25.07 13.1 55.5 65 6.7 44.1
04:45 1020 30.12 849 25.07 13.2 55.7 66 7 44.6
04:50 1020 30.12 849 25.07 12.8 55.1 69 7.4 45.3
04:55 1020 30.12 849 25.07 12.2 54 70 7 44.6
05:00 1020 30.12 849 25.07 12 53.5 71 6.9 44.4
05:05 1020 30.12 849 25.07 12 53.7 71 6.9 44.4
05:10 1020 30.12 849 25.07 12.1 53.7 71 6.9 44.5
05:15 1020 30.12 849 25.07 12 53.7 70 6.8 44.2
05:20 1020 30.12 849 25.07 12.3 54.1 68 6.7 44
05:25 1020 30.12 849 25.07 12.5 54.5 67 6.7 44
05:30 1020 30.12 849 25.07 12.6 54.6 68 6.8 44.3
05:35 1020 30.12 849 25.07 12.4 54.4 68 6.8 44.3
05:40 1020 30.12 849 25.07 12.4 54.2 68 6.7 44.1
05:45 1020 30.12 849 25.07 12.4 54.2 68 6.7 44
05:50 1020 30.12 849 25.07 12.5 54.5 67 6.6 43.8
05:55 1020 30.12 849 25.07 12.7 54.8 66 6.6 43.8
06:00 1020 30.12 849 25.07 12.8 55 66 6.5 43.7
06:05 1020 30.12 849 25.07 13 55.3 64 6.3 43.4
06:10 1020 30.12 850 25.1 13.1 55.6 63 6.4 43.5
06:15 1020 30.12 850 25.1 13 55.4 66 6.8 44.3
06:20 1020 30.12 850 25.1 12.7 54.9 66 6.7 44
06:25 1020 30.12 850 25.1 12.6 54.6 67 6.7 44
06:30 1021 30.15 850 25.1 12.4 54.4 68 6.8 44.2
06:35 1021 30.15 850 25.1 12.2 53.9 69 6.6 43.9
06:40 1021 30.15 850 25.1 12.4 54.3 68 6.8 44.2
06:45 1021 30.15 850 25.1 12.6 54.6 66 6.5 43.7
06:50 1021 30.15 850 25.1 13.1 55.5 64 6.4 43.6
06:55 1021 30.15 850 25.1 13.4 56.1 63 6.6 43.8
07:00 1021 30.15 850 25.1 13.8 56.8 62 6.6 43.8
07:05 1021 30.15 850 25.1 14.6 58.3 59 6.9 44.4
07:10 1021 30.15 850 25.1 15.2 59.4 59 7.2 45
07:15 1021 30.15 850 25.1 15.8 60.4 55 6.9 44.4
07:20 1021 30.15 850 25.1 15.4 59.6 60 7.8 46
07:25 1021 30.15 850 25.1 15.4 59.8 57 7.2 44.9
07:30 1021 30.15 850 25.1 16.1 60.9 56 7.4 45.2
07:35 1021 30.15 850 25.1 16.2 61.1 56 7.5 45.4
07:40 1021 30.15 850 25.1 15.9 60.6 57 7.4 45.3
07:45 1021 30.15 850 25.1 16.2 61.1 57 7.7 45.8
07:50 1021 30.15 850 25.1 16.7 62.1 55 7.7 45.8
07:55 1021 30.15 850 25.1 17.1 62.7 55 8 46.3
08:00 1021 30.15 850 25.1 17.9 64.1 52 8 46.4
08:05 1021 30.15 850 25.1 18.4 65.1 52 8.4 47.1
08:10 1021 30.15 850 25.1 18.3 65 52 8.5 47.3
08:15 1021 30.15 850 25.1 18 64.4 56 9.1 48.3
08:20 1021 30.15 850 25.1 17.8 64 54 8.5 47.2
08:25 1021 30.15 850 25.1 18.4 65.1 53 8.7 47.6
08:30 1021 30.15 850 25.1 19.2 66.5 50 8.5 47.2
08:35 1021 30.15 850 25.1 19.7 67.5 49 8.8 47.8
08:40 1021 30.15 850 25.1 20 68 47 8.6 47.4
08:45 1021 30.15 850 25.1 20.3 68.5 45 8.2 46.8
08:50 1021 30.15 850 25.1 20.5 69 45 8.4 47.1
08:55 1021 30.15 850 25.1 20.7 69.2 44 8.2 46.8
09:00 1021 30.15 850 25.1 21 69.8 44 8.4 47.1
09:05 1021 30.15 850 25.1 21 69.8 41 7.6 45.7
09:10 1021 30.15 850 25.1 21 69.7 42 7.9 46.2
09:15 1021 30.15 850 25.1 21.6 70.9 40 7.7 45.8
09:20 1021 30.15 850 25.1 22 71.5 40 7.9 46.2
09:25 1021 30.15 850 25.1 22.2 72 40 8.2 46.7
09:30 1021 30.15 850 25.1 22.7 72.8 39 8.2 46.7
09:35 1021 30.15 850 25.1 23.3 73.9 38 8.4 47.1
09:40 1021 30.15 850 25.1 23.5 74.2 36 7.8 46
09:45 1021 30.15 850 25.1 23.7 74.6 37 8.4 47.2
09:50 1021 30.15 850 25.1 23.6 74.4 37 8.3 46.9
09:55 1021 30.15 850 25.1 23.8 74.8 36 8.1 46.6
10:00 1021 30.15 850 25.1 23.9 75 37 8.6 47.4
10:05 1021 30.15 850 25.1 23.1 73.6 39 8.8 47.8
10:10 1021 30.15 850 25.1 23.5 74.3 38 8.4 47.2
10:15 1021 30.15 850 25.1 23.6 74.6 36 8.1 46.5
10:20 1021 30.15 850 25.1 23.1 73.5 38 8.2 46.8
10:25 1021 30.15 850 25.1 23.9 74.9 35 7.5 45.5
10:30 1021 30.15 850 25.1 24.6 76.3 34 7.8 46
10:35 1021 30.15 850 25.1 24.2 75.6 35 8.2 46.7
10:40 1020 30.12 850 25.1 24.3 75.7 34 7.7 45.9
10:45 1020 30.12 850 25.1 24.5 76.1 33 7.4 45.3
10:50 1020 30.12 850 25.1 25 77.1 33 8 46.4
10:55 1020 30.12 850 25.1 25.4 77.7 34 8.4 47.2
11:00 1020 30.12 849 25.07 24.6 76.2 33 7.5 45.4
11:05 1020 30.12 849 25.07 25.3 77.6 32 7.6 45.8
11:10 1020 30.12 849 25.07 25.8 78.4 31 7.7 45.8
11:15 1020 30.12 849 25.07 25.7 78.3 31 7.4 45.3
11:20 1020 30.12 849 25.07 25.1 77.2 31 7.1 44.8
11:25 1020 30.12 849 25.07 25.3 77.5 31 7.4 45.3
11:30 1020 30.12 849 25.07 25.6 78.1 30 7 44.6
11:35 1020 30.12 849 25.07 25.8 78.4 29 6.9 44.4
11:40 1020 30.12 849 25.07 25.8 78.4 28 6.4 43.4
11:45 1020 30.12 849 25.07 26 78.8 29 7 44.6
11:50 1020 30.12 849 25.07 26.3 79.3 29 7.1 44.8
11:55 1020 30.12 849 25.07 26.1 79 28 6.3 43.4
12:00 1020 30.12 849 25.07 26.6 79.8 28 7 44.6
12:05 1019 30.09 849 25.07 26.8 80.3 27 6.8 44.2
12:10 1019 30.09 849 25.07 27.6 81.6 26 6.9 44.4
12:15 1019 30.09 848 25.04 27.6 81.6 26 6.7 44
12:20 1019 30.09 848 25.04 27.7 81.9 26 6.9 44.5
12:25 1019 30.09 848 25.04 28 82.3 26 6.7 44.1
12:30 1019 30.09 848 25.04 27.6 81.7 25 6.4 43.5
12:35 1019 30.09 848 25.04 27.9 82.2 25 6.3 43.3
12:40 1019 30.09 848 25.04 28.6 83.5 24 6.3 43.3
12:45 1019 30.09 848 25.04 28.8 83.9 23 6 42.8
12:50 1019 30.09 848 25.04 28.9 84.1 23 6.3 43.4
12:55 1019 30.09 848 25.04 28.3 83 24 6.4 43.6
13:00 1019 30.09 848 25.04 28.2 82.7 23 5.7 42.3
13:05 1019 30.09 848 25.04 29.2 84.5 22 5.9 42.7
13:10 1019 30.09 848 25.04 29.9 85.8 23 6.8 44.2
13:15 1019 30.09 848 25.04 29.6 85.3 22 6.1 42.9
13:20 1019 30.09 848 25.04 29.7 85.4 23 6.4 43.5
13:25 1019 30.09 848 25.04 29.8 85.6 23 6.8 44.3
13:30 1019 30.09 848 25.04 29.5 85.1 23 6.2 43.2
13:35 1019 30.09 848 25.04 29.6 85.2 22 5.9 42.7
13:40 1019 30.09 848 25.04 29.4 84.8 22 5.7 42.3
13:45 1018 30.06 848 25.04 29.6 85.2 23 6.4 43.6
13:50 1018 30.06 848 25.04 29.2 84.5 23 6.1 43
13:55 1018 30.06 848 25.04 29 84.1 24 6.8 44.2
14:00 1018 30.06 848 25.04 29.1 84.3 23 6.1 43
14:05 1018 30.06 848 25.04 28.9 83.9 23 6 42.8
14:10 1018 30.06 847 25.01 28.5 83.3 24 6.1 42.9
14:15 1018 30.06 847 25.01 28.5 83.3 23 5.7 42.2
14:20 1018 30.06 847 25.01 28.7 83.6 23 5.5 41.9
14:25 1018 30.06 847 25.01 29.2 84.6 21 5.1 41.3
14:30 1018 30.06 847 25.01 30.2 86.4 19 4.6 40.3
14:35 1018 30.06 847 25.01 30.4 86.6 18 3.6 38.5
14:40 1018 30.06 847 25.01 29.7 85.4 19 4.2 39.5
14:45 1018 30.06 847 25.01 29.9 85.7 18 3.1 37.5
14:50 1018 30.06 847 25.01 29.9 85.8 17 2.8 37.1
14:55 1018 30.06 847 25.01 30.4 86.6 18 3.6 38.5
15:00 1018 30.06 847 25.01 29.8 85.7 15 0.8 33.4
15:05 1018 30.06 847 25.01 30.4 86.8 16 1.8 35.3
15:10 1018 30.06 847 25.01 30.2 86.4 16 2.2 36
15:15 1018 30.06 847 25.01 30.4 86.8 18 3.9 39
15:20 1018 30.06 847 25.01 29.5 85.2 23 6.7 44.1
15:25 1017 30.03 847 25.01 28.5 83.3 22 4.8 40.7
15:30 1017 30.03 847 25.01 28.8 83.9 20 3.8 38.9
15:35 1017 30.03 847 25.01 28.7 83.6 18 2.6 36.8
15:40 1017 30.03 847 25.01 28.6 83.4 20 3.9 38.9
15:45 1017 30.03 846 24.98 28.5 83.3 20 3.8 38.8
15:50 1017 30.03 846 24.98 29.1 84.5 15 0.4 32.7
15:55 1017 30.03 846 24.98 28.9 83.9 16 1 33.8
16:00 1017 30.03 846 24.98 28.9 83.9 17 2 35.6
16:05 1017 30.03 846 24.98 28.9 84 17 1.8 35.2
16:10 1017 30.03 846 24.98 29.6 85.2 17 1.9 35.5
16:15 1017 30.03 846 24.98 29.9 85.8 15 0.9 33.6
16:20 1017 30.03 846 24.98 30 86.1 16 1.8 35.3
16:25 1017 30.03 846 24.98 29.9 85.8 15 0.5 33
16:30 1017 30.03 846 24.98 30.1 86.1 14 -0.4 31.3
16:35 1017 30.03 846 24.98 30.6 87 14 0.1 32.2
16:40 1017 30.03 846 24.98 30.4 86.7 15 0.8 33.5
16:45 1017 30.03 846 24.98 30.4 86.7 17 2.9 37.2
16:50 1017 30.03 846 24.98 30 85.9 17 2.7 36.9
16:55 1017 30.03 846 24.98 29.9 85.9 18 3.1 37.6
17:00 1017 30.03 846 24.98 29.9 85.8 15 1 33.8
17:05 1017 30.03 846 24.98 29.4 84.9 18 2.6 36.7
17:10 1017 30.03 846 24.98 29.2 84.6 18 2.7 36.9
17:15 1017 30.03 846 24.98 29 84.2 19 3.3 38
17:20 1017 30.03 846 24.98 28.7 83.6 20 3.9 39
17:20 1017 30.03 846 24.98 28.7 83.6 20 3.9 39
17:25 1017 30.03 846 24.98 28.2 82.8 21 4 39.1
17:30 1017 30.03 846 24.98 28 82.4 21 4 39.1
17:35 1017 30.03 846 24.98 28 82.4 21 4 39.2
17:40 1017 30.03 846 24.98 28 82.4 20 3 37.5
17:45 1017 30.03 846 24.98 28.1 82.5 20 3.2 37.8
17:50 1017 30.03 846 24.98 28 82.4 22 4.6 40.3
17:55 1017 30.03 846 24.98 27.8 82.1 22 4.3 39.7
18:00 1017 30.03 846 24.98 27.9 82.2 22 4.8 40.6
18:05 1017 30.03 846 24.98 27.9 82.2 21 3.7 38.7
18:10 1017 30.03 846 24.98 27.7 81.9 24 5.6 42.1
18:15 1017 30.03 846 24.98 27 80.6 24 5.3 41.5
18:20 1017 30.03 846 24.98 26.6 79.9 26 5.6 42
18:25 1017 30.03 846 24.98 26.4 79.5 29 7 44.6
18:30 1017 30.03 846 24.98 26.4 79.5 25 4.9 40.8
18:35 1017 30.03 846 24.98 26 78.7 30 7.1 44.9
18:40 1017 30.03 846 24.98 25.5 77.8 33 8.3 47
18:45 1017 30.03 846 24.98 25.2 77.4 29 6.3 43.4
18:50 1017 30.03 846 24.98 25.4 77.8 26 4.9 40.9
18:55 1017 30.03 846 24.98 25.7 78.3 28 5.9 42.6
19:00 1017 30.03 846 24.98 25.6 78 28 6.2 43.2
19:05 1017 30.03 846 24.98 25.6 78 24 3.9 39
19:10 1017 30.03 846 24.98 25.7 78.2 22 2.6 36.6
19:15 1017 30.03 846 24.98 25.7 78.3 22 2.9 37.2
19:20 1017 30.03 846 24.98 25.4 77.7 23 3.2 37.8
19:25 1017 30.03 846 24.98 25.2 77.3 23 2.8 37.1
19:30 1017 30.03 846 24.98 25.1 77.2 23 2.6 36.6
19:35 1017 30.03 846 24.98 25.2 77.4 22 2.4 36.3
19:40 1017 30.03 846 24.98 25.2 77.4 22 2.5 36.6
19:45 1017 30.03 847 25.01 25.1 77.1 23 2.8 37
19:50 1017 30.03 847 25.01 24.9 76.8 24 3.3 38
19:55 1017 30.03 847 25.01 24.8 76.6 24 2.9 37.2
20:00 1018 30.06 847 25.01 24.6 76.2 24 2.8 37.1
20:05 1018 30.06 847 25.01 24.3 75.7 25 3.2 37.7
20:10 1018 30.06 847 25.01 23.9 75.1 25 2.7 36.9
20:15 1018 30.06 847 25.01 23.8 74.9 25 3 37.3
20:20 1018 30.06 847 25.01 23.7 74.7 25 2.7 36.8
20:25 1018 30.06 847 25.01 23.8 74.9 25 2.8 37.1
20:30 1018 30.06 847 25.01 23.8 74.9 25 2.8 37.1
20:35 1018 30.06 847 25.01 23.8 74.8 25 2.9 37.2
20:40 1018 30.06 847 25.01 23.7 74.6 25 2.8 37
20:45 1018 30.06 847 25.01 23.7 74.7 25 2.7 36.8
20:50 1018 30.06 847 25.01 23.8 74.8 25 3 37.4
20:55 1018 30.06 847 25.01 23.5 74.3 26 3.2 37.7
21:00 1018 30.06 847 25.01 23.2 73.7 27 3.6 38.5
21:05 1018 30.06 847 25.01 23 73.3 27 3.4 38.2
21:10 1018 30.06 847 25.01 22.8 73 28 3.6 38.4
21:15 1018 30.06 847 25.01 22.7 72.8 28 3.7 38.6
21:20 1018 30.06 847 25.01 22.6 72.8 29 4 39.2
21:25 1018 30.06 847 25.01 22.3 72.2 31 4.5 40.1
21:30 1018 30.06 847 25.01 21.9 71.3 33 5 41
21:35 1018 30.06 847 25.01 21.7 71.1 31 4.1 39.4
21:40 1018 30.06 847 25.01 21.6 70.9 32 4.3 39.7
21:45 1018 30.06 847 25.01 21.4 70.4 32 4.2 39.6
21:50 1018 30.06 847 25.01 21.2 70.2 34 4.9 40.8
21:55 1018 30.06 847 25.01 21 69.8 33 4.4 39.9
22:00 1018 30.06 847 25.01 20.9 69.5 33 4.4 39.9
22:05 1018 30.06 847 25.01 20.6 69.2 34 4.5 40
22:10 1018 30.06 847 25.01 20.5 68.8 35 4.8 40.6
22:15 1018 30.06 847 25.01 19.7 67.5 40 5.9 42.6
22:20 1018 30.06 847 25.01 19.4 66.9 38 4.8 40.7
22:25 1018 30.06 847 25.01 19.9 67.7 37 4.7 40.5
22:30 1018 30.06 847 25.01 19.9 67.9 35 4.1 39.4
22:35 1018 30.06 847 25.01 20.1 68.1 35 4.2 39.5
22:40 1018 30.06 847 25.01 20 68 35 4.3 39.8
22:45 1018 30.06 847 25.01 19.8 67.6 37 4.7 40.5
22:50 1018 30.06 847 25.01 19.5 67.1 37 4.6 40.3
22:55 1018 30.06 847 25.01 19.4 67 38 4.7 40.5
23:00 1018 30.06 847 25.01 19.2 66.6 38 4.7 40.5
23:05 1018 30.06 847 25.01 19.2 66.6 39 5 41
23:10 1018 30.06 847 25.01 19.2 66.5 38 4.6 40.3
23:15 1018 30.06 847 25.01 19.3 66.7 38 4.8 40.7
23:20 1018 30.06 847 25.01 19.1 66.4 38 4.8 40.6
23:25 1018 30.06 847 25.01 19.1 66.4 39 4.9 40.8
23:30 1018 30.06 847 25.01 19 66.1 39 4.8 40.7
23:35 1018 30.06 847 25.01 19.1 66.3 38 4.6 40.2
23:40 1018 30.06 847 25.01 19 66.2 38 4.5 40.2
23:45 1018 30.06 847 25.01 19 66.1 40 5.2 41.4
23:50 1018 30.06 847 25.01 18.6 65.5 41 5.3 41.6
23:55 1018 30.06 847 25.01 18.3 65 42 5.3 41.5
24:00 1018 30.06 847 25.01 18.2 64.8 42 5.2 41.4